createdAt,value
2022-10-10T00:01:37.299Z,54.86
2022-10-10T00:04:07.570Z,55.06
2022-10-10T00:06:36.379Z,55.09
2022-10-10T00:09:06.544Z,55.15
2022-10-10T00:11:34.849Z,55.01
2022-10-10T00:14:03.279Z,55.01
2022-10-10T00:16:31.662Z,54.85
2022-10-10T00:19:01.343Z,55.27
2022-10-10T00:21:31.170Z,54.94
2022-10-10T00:24:00.920Z,55.09
2022-10-10T00:26:29.836Z,54.76
2022-10-10T00:28:58.173Z,54.89
2022-10-10T00:31:27.503Z,55.19
2022-10-10T00:33:55.876Z,54.83
2022-10-10T00:36:24.779Z,55.11
2022-10-10T00:38:54.964Z,54.97
2022-10-10T00:41:24.243Z,54.96
2022-10-10T00:44:03.613Z,55.19
2022-10-10T00:46:32.431Z,54.96
2022-10-10T00:49:01.939Z,54.97
2022-10-10T00:51:30.741Z,55.16
2022-10-10T00:54:04.764Z,55.17
2022-10-10T00:56:39.033Z,54.93
2022-10-10T00:59:11.428Z,54.96
2022-10-10T01:01:40.200Z,55.08
2022-10-10T01:04:08.987Z,55.11
2022-10-10T01:06:37.488Z,55.04
2022-10-10T01:09:07.337Z,55.29
2022-10-10T01:11:50.430Z,54.97
2022-10-10T01:14:30.139Z,55.16
2022-10-10T01:17:07.723Z,55.11
2022-10-10T01:20:13.631Z,54.98
2022-10-10T01:22:57.166Z,54.90
2022-10-10T01:25:30.923Z,55.01
2022-10-10T01:28:03.673Z,54.93
2022-10-10T01:30:36.068Z,55.21
2022-10-10T01:33:13.150Z,55.17
2022-10-10T01:35:51.449Z,55.24
2022-10-10T01:38:30.097Z,54.97
2022-10-10T01:41:04.988Z,54.93
2022-10-10T01:43:34.095Z,55.14
2022-10-10T01:46:11.705Z,55.21
2022-10-10T01:48:41.246Z,55.16
2022-10-10T01:51:33.793Z,54.96
2022-10-10T01:54:12.801Z,54.93
2022-10-10T01:56:50.161Z,54.98
2022-10-10T01:59:33.057Z,55.30
2022-10-10T02:02:10.641Z,55.28
2022-10-10T02:04:45.071Z,55.23
2022-10-10T02:07:21.081Z,55.17
2022-10-10T02:09:52.861Z,55.37
2022-10-10T02:12:23.938Z,55.07
2022-10-10T02:14:55.856Z,55.24
2022-10-10T02:17:27.486Z,55.04
2022-10-10T02:19:59.732Z,54.95
2022-10-10T02:22:30.040Z,55.02
2022-10-10T02:24:58.943Z,55.28
2022-10-10T02:27:34.721Z,55.01
2022-10-10T02:30:05.230Z,55.21
2022-10-10T02:32:41.385Z,55.15
2022-10-10T02:35:14.195Z,54.96
2022-10-10T02:37:43.836Z,55.25
2022-10-10T02:40:15.751Z,55.28
2022-10-10T02:42:46.871Z,55.16
2022-10-10T02:45:16.442Z,55.13
2022-10-10T02:47:46.480Z,55.19
2022-10-10T02:50:15.672Z,54.88
2022-10-10T02:52:43.977Z,55.13
2022-10-10T02:55:12.194Z,55.37
2022-10-10T02:57:41.089Z,54.92
2022-10-10T03:00:10.597Z,54.91
2022-10-10T03:02:39.073Z,55.15
2022-10-10T03:05:09.241Z,55.19
2022-10-10T03:07:38.000Z,55.10
2022-10-10T03:10:07.528Z,54.89
2022-10-10T03:12:35.809Z,54.95
2022-10-10T03:15:06.923Z,54.87
2022-10-10T03:17:39.066Z,55.08
2022-10-10T03:20:10.387Z,55.18
2022-10-10T03:22:38.630Z,55.04
2022-10-10T03:25:07.577Z,54.85
2022-10-10T03:27:35.769Z,54.84
2022-10-10T03:30:04.236Z,55.00
2022-10-10T03:32:32.450Z,55.23
2022-10-10T03:35:00.925Z,55.14
2022-10-10T03:37:32.316Z,54.96
2022-10-10T03:40:00.739Z,54.89
2022-10-10T03:42:29.264Z,54.85
2022-10-10T03:44:57.953Z,54.97
2022-10-10T03:47:26.252Z,54.79
2022-10-10T03:49:54.657Z,55.06
2022-10-10T03:52:23.680Z,55.08
2022-10-10T03:54:53.621Z,55.12
2022-10-10T03:57:22.113Z,54.67
2022-10-10T03:59:50.785Z,55.06
2022-10-10T04:02:19.061Z,55.03
2022-10-10T04:04:47.267Z,55.17
2022-10-10T04:07:15.672Z,54.86
2022-10-10T04:09:44.363Z,54.86
2022-10-10T04:12:14.100Z,55.03
2022-10-10T04:14:42.906Z,54.79
2022-10-10T04:17:11.080Z,55.21
2022-10-10T04:19:39.445Z,54.75
2022-10-10T04:22:10.951Z,54.84
2022-10-10T04:24:39.562Z,55.09
2022-10-10T04:27:08.053Z,54.90
2022-10-10T04:29:41.362Z,55.09
2022-10-10T04:32:09.626Z,55.13
2022-10-10T04:34:38.235Z,54.81
2022-10-10T04:37:06.544Z,54.95
2022-10-10T04:39:35.130Z,54.99
2022-10-10T04:42:03.592Z,54.70
2022-10-10T04:44:32.261Z,55.00
2022-10-10T04:47:02.041Z,55.04
2022-10-10T04:49:30.644Z,54.97
2022-10-10T04:51:58.833Z,54.74
2022-10-10T04:54:27.131Z,54.87
2022-10-10T04:56:55.436Z,55.01
2022-10-10T04:59:23.756Z,54.79
2022-10-10T05:01:52.298Z,54.99
2022-10-10T05:04:22.694Z,55.06
2022-10-10T05:06:51.070Z,54.94
2022-10-10T05:09:19.724Z,54.68
2022-10-10T05:11:48.033Z,54.92
2022-10-10T05:14:16.371Z,55.02
2022-10-10T05:16:44.571Z,54.83
2022-10-10T05:19:13.015Z,54.99
2022-10-10T05:21:42.811Z,55.08
2022-10-10T05:24:10.913Z,54.80
2022-10-10T05:26:43.103Z,54.75
2022-10-10T05:29:11.754Z,54.72
2022-10-10T05:31:40.365Z,54.63
2022-10-10T05:34:09.413Z,54.96
2022-10-10T05:36:37.914Z,54.93
2022-10-10T05:39:07.723Z,54.96
2022-10-10T05:41:36.077Z,54.96
2022-10-10T05:44:05.179Z,54.74
2022-10-10T05:46:33.462Z,54.65
2022-10-10T05:49:01.574Z,54.99
2022-10-10T05:51:29.753Z,54.86
2022-10-10T05:53:58.459Z,54.66
2022-10-10T05:56:28.273Z,54.88
2022-10-10T05:58:56.595Z,54.99
2022-10-10T06:01:25.509Z,55.08
2022-10-10T06:03:56.258Z,55.01
2022-10-10T06:06:26.136Z,54.72
2022-10-10T06:08:54.527Z,54.76
2022-10-10T06:11:25.138Z,54.89
2022-10-10T06:13:55.424Z,54.82
2022-10-10T06:16:26.316Z,54.85
2022-10-10T06:18:56.776Z,55.02
2022-10-10T06:21:25.716Z,54.86
2022-10-10T06:23:54.316Z,55.00
2022-10-10T06:26:22.587Z,54.80
2022-10-10T06:28:52.008Z,54.57
2022-10-10T06:31:22.066Z,55.01
2022-10-10T06:33:50.458Z,54.71
2022-10-10T06:36:18.906Z,54.94
2022-10-10T06:38:47.552Z,54.97
2022-10-10T06:41:15.931Z,54.63
2022-10-10T06:43:44.256Z,54.82
2022-10-10T06:46:13.447Z,54.84
2022-10-10T06:48:43.163Z,54.54
2022-10-10T06:51:15.809Z,54.63
2022-10-10T06:53:44.858Z,54.77
2022-10-10T06:56:18.133Z,54.80
2022-10-10T06:58:46.813Z,54.83
2022-10-10T07:01:16.512Z,54.76
2022-10-10T07:03:46.397Z,54.45
2022-10-10T07:06:15.409Z,54.62
2022-10-10T07:08:43.876Z,54.75
2022-10-10T07:11:12.765Z,54.41
2022-10-10T07:13:41.141Z,54.56
2022-10-10T07:16:09.710Z,54.59
2022-10-10T07:18:38.197Z,54.69
2022-10-10T07:21:08.357Z,54.58
2022-10-10T07:23:37.040Z,54.55
2022-10-10T07:26:09.106Z,54.61
2022-10-10T07:28:37.775Z,54.76
2022-10-10T07:31:09.033Z,54.50
2022-10-10T07:33:42.259Z,54.49
2022-10-10T07:36:13.913Z,54.66
2022-10-10T07:38:42.632Z,54.62
2022-10-10T07:41:13.558Z,54.67
2022-10-10T07:43:42.031Z,54.62
2022-10-10T07:46:16.287Z,54.54
2022-10-10T07:48:45.125Z,54.77
2022-10-10T07:51:16.003Z,54.67
2022-10-10T07:53:44.393Z,54.71
2022-10-10T07:56:13.651Z,54.94
2022-10-10T07:58:42.158Z,54.83
2022-10-10T08:01:13.033Z,54.61
2022-10-10T08:03:42.180Z,54.66
2022-10-10T08:06:13.046Z,54.63
2022-10-10T08:08:50.737Z,54.58
2022-10-10T08:11:21.715Z,54.40
2022-10-10T08:13:50.964Z,54.78
2022-10-10T08:16:20.167Z,54.67
2022-10-10T08:18:48.938Z,54.59
2022-10-10T08:21:18.130Z,54.81
2022-10-10T08:23:48.014Z,54.64
2022-10-10T08:26:18.566Z,54.79
2022-10-10T08:28:48.843Z,54.52
2022-10-10T08:31:19.321Z,54.58
2022-10-10T08:33:48.018Z,54.63
2022-10-10T08:36:18.917Z,54.70
2022-10-10T08:38:49.255Z,54.52
2022-10-10T08:41:26.793Z,54.79
2022-10-10T08:44:01.229Z,54.53
2022-10-10T08:46:37.901Z,54.80
2022-10-10T08:49:17.984Z,54.71
2022-10-10T08:51:52.761Z,54.59
2022-10-10T08:54:26.959Z,54.91
2022-10-10T08:57:00.274Z,54.63
2022-10-10T08:59:33.754Z,54.83
2022-10-10T09:02:26.345Z,54.62
2022-10-10T09:05:08.533Z,54.85
2022-10-10T09:08:00.016Z,54.86
2022-10-10T09:10:37.668Z,54.52
2022-10-10T09:13:22.229Z,54.51
2022-10-10T09:15:56.096Z,54.75
2022-10-10T09:18:36.311Z,54.71
2022-10-10T09:21:16.481Z,54.78
2022-10-10T09:23:52.646Z,54.49
2022-10-10T09:26:27.193Z,54.57
2022-10-10T09:29:01.751Z,54.81
2022-10-10T09:31:36.350Z,54.98
2022-10-10T09:34:11.103Z,54.81
2022-10-10T09:36:39.682Z,54.74
2022-10-10T09:39:20.722Z,54.83
2022-10-10T09:41:56.969Z,54.89
2022-10-10T09:44:25.609Z,54.51
2022-10-10T09:46:54.257Z,54.72
2022-10-10T09:49:23.417Z,54.61
2022-10-10T09:51:52.667Z,54.60
2022-10-10T09:54:21.839Z,54.91
2022-10-10T09:56:55.885Z,54.85
2022-10-10T09:59:41.506Z,54.84
2022-10-10T10:02:19.814Z,54.75
2022-10-10T10:04:49.008Z,54.63
2022-10-10T10:07:24.838Z,54.66
2022-10-10T10:09:55.363Z,54.86
2022-10-10T10:12:29.554Z,54.99
2022-10-10T10:15:04.031Z,54.91
2022-10-10T10:17:32.497Z,55.04
2022-10-10T10:20:00.957Z,55.04
2022-10-10T10:22:35.654Z,54.73
2022-10-10T10:25:32.112Z,54.61
2022-10-10T10:28:25.808Z,54.66
2022-10-10T10:30:56.104Z,54.68
2022-10-10T10:33:37.755Z,54.81
2022-10-10T10:36:18.555Z,54.70
2022-10-10T10:38:51.558Z,54.90
2022-10-10T10:41:29.913Z,55.13
2022-10-10T10:44:14.761Z,54.87
2022-10-10T10:46:57.031Z,55.30
2022-10-10T10:49:30.661Z,54.83
2022-10-10T10:52:11.632Z,55.06
2022-10-10T10:55:05.395Z,55.04
2022-10-10T10:58:04.751Z,55.02
2022-10-10T11:01:27.966Z,54.96
2022-10-10T11:05:19.873Z,54.94
2022-10-10T11:07:17.365Z,54.88
2022-10-10T11:09:54.307Z,54.80
2022-10-10T11:12:45.537Z,54.90
2022-10-10T11:15:18.319Z,54.81
2022-10-10T11:17:54.465Z,54.67
2022-10-10T11:20:29.256Z,54.93
2022-10-10T11:23:08.659Z,54.89
2022-10-10T11:25:45.616Z,55.13
2022-10-10T11:28:17.792Z,54.99
2022-10-10T11:30:50.962Z,55.20
2022-10-10T11:33:26.115Z,55.15
2022-10-10T11:35:59.630Z,55.09
2022-10-10T11:38:35.227Z,54.88
2022-10-10T11:41:07.877Z,55.17
2022-10-10T11:43:45.015Z,55.12
2022-10-10T11:46:28.570Z,55.14
2022-10-10T11:49:06.502Z,55.17
2022-10-10T11:51:42.903Z,55.15
2022-10-10T11:54:23.157Z,54.95
2022-10-10T11:56:55.081Z,54.90
2022-10-10T11:59:28.383Z,55.12
2022-10-10T12:02:00.642Z,54.99
2022-10-10T12:04:38.435Z,55.14
2022-10-10T12:07:12.964Z,54.99
2022-10-10T12:09:46.399Z,55.16
2022-10-10T12:12:21.236Z,55.18
2022-10-10T12:14:54.475Z,55.17
2022-10-10T12:17:27.373Z,55.07
2022-10-10T12:19:57.671Z,54.86
2022-10-10T12:22:29.783Z,55.28
2022-10-10T12:25:21.877Z,55.14
2022-10-10T12:28:07.212Z,54.93
2022-10-10T12:30:35.564Z,55.12
2022-10-10T12:33:03.903Z,54.91
2022-10-10T12:35:42.815Z,54.84
2022-10-10T12:38:21.504Z,54.84
2022-10-10T12:41:08.415Z,55.23
2022-10-10T12:43:43.187Z,54.86
2022-10-10T12:46:26.702Z,55.07
2022-10-10T12:49:15.175Z,54.90
2022-10-10T12:51:46.304Z,55.20
2022-10-10T12:54:25.964Z,54.88
2022-10-10T12:57:14.283Z,55.04
2022-10-10T12:59:43.971Z,55.07
2022-10-10T13:02:18.987Z,55.20
2022-10-10T13:04:50.552Z,55.07
2022-10-10T13:07:23.720Z,55.15
2022-10-10T13:09:56.928Z,55.18
2022-10-10T13:12:29.603Z,54.95
2022-10-10T13:14:58.853Z,55.00
2022-10-10T13:17:29.965Z,55.21
2022-10-10T13:20:00.872Z,55.03
2022-10-10T13:22:32.347Z,54.98
2022-10-10T13:25:02.045Z,55.15
2022-10-10T13:27:32.475Z,54.90
2022-10-10T13:30:01.281Z,55.16
2022-10-10T13:32:33.297Z,54.92
2022-10-10T13:35:05.332Z,55.05
2022-10-10T13:37:37.198Z,55.08
2022-10-10T13:40:06.060Z,55.24
2022-10-10T13:42:38.419Z,55.33
2022-10-10T13:45:30.925Z,54.88
2022-10-10T13:48:13.454Z,54.92
2022-10-10T13:50:57.876Z,55.15
2022-10-10T13:53:34.937Z,54.91
2022-10-10T13:56:08.673Z,55.20
2022-10-10T13:58:42.461Z,55.04
2022-10-10T14:01:39.723Z,54.99
2022-10-10T14:04:21.944Z,54.88
2022-10-10T14:06:58.028Z,55.04
2022-10-10T14:09:33.053Z,55.34
2022-10-10T14:12:04.251Z,55.04
2022-10-10T14:14:41.951Z,55.16
2022-10-10T14:17:12.334Z,55.01
2022-10-10T14:19:41.205Z,55.11
2022-10-10T14:22:09.437Z,55.13
2022-10-10T14:24:39.184Z,55.25
2022-10-10T14:27:15.496Z,54.98
2022-10-10T14:29:44.434Z,55.04
2022-10-10T14:32:13.175Z,55.04
2022-10-10T14:34:45.436Z,54.98
2022-10-10T14:37:20.050Z,55.02
2022-10-10T14:39:49.856Z,55.08
2022-10-10T14:42:19.763Z,55.04
2022-10-10T14:44:48.598Z,55.04
2022-10-10T14:47:18.450Z,54.88
2022-10-10T14:49:46.918Z,55.03
2022-10-10T14:52:15.199Z,55.28
2022-10-10T14:54:43.801Z,55.19
2022-10-10T14:57:13.953Z,55.09
2022-10-10T14:59:46.062Z,55.32
2022-10-10T15:02:19.306Z,55.32
2022-10-10T15:04:47.503Z,55.07
2022-10-10T15:07:16.678Z,55.08
2022-10-10T15:10:09.599Z,55.36
2022-10-10T15:12:36.745Z,55.14
2022-10-10T15:15:07.037Z,55.06
2022-10-10T15:17:35.661Z,55.32
2022-10-10T15:20:04.918Z,55.01
2022-10-10T15:22:35.097Z,55.17
2022-10-10T15:25:03.816Z,55.16
2022-10-10T15:27:32.925Z,55.20
2022-10-10T15:30:02.536Z,55.47
2022-10-10T15:32:30.746Z,55.42
2022-10-10T15:34:59.235Z,55.42
2022-10-10T15:37:28.346Z,55.34
2022-10-10T15:39:56.997Z,55.48
2022-10-10T15:42:25.281Z,55.29
2022-10-10T15:44:53.872Z,55.17
2022-10-10T15:47:23.483Z,55.44
2022-10-10T15:49:51.948Z,55.10
2022-10-10T15:52:23.129Z,55.21
2022-10-10T15:54:51.854Z,55.51
2022-10-10T15:57:22.378Z,55.45
2022-10-10T15:59:51.250Z,55.56
2022-10-10T16:02:19.729Z,55.24
2022-10-10T16:04:50.061Z,55.36
2022-10-10T16:07:28.143Z,55.18
2022-10-10T16:09:58.045Z,55.29
2022-10-10T16:12:26.215Z,55.08
2022-10-10T16:14:54.621Z,55.21
2022-10-10T16:17:23.767Z,55.39
2022-10-10T16:19:53.582Z,55.47
2022-10-10T16:22:21.995Z,55.46
2022-10-10T16:25:10.156Z,55.38
2022-10-10T16:27:39.528Z,55.09
2022-10-10T16:30:09.571Z,55.49
2022-10-10T16:32:42.367Z,55.21
2022-10-10T16:35:12.721Z,55.13
2022-10-10T16:37:41.027Z,55.54
2022-10-10T16:40:10.303Z,55.26
2022-10-10T16:42:40.391Z,55.49
2022-10-10T16:45:09.848Z,55.39
2022-10-10T16:47:38.563Z,55.53
2022-10-10T16:50:08.272Z,55.23
2022-10-10T16:52:38.547Z,55.50
2022-10-10T16:55:08.148Z,55.33
2022-10-10T16:57:37.086Z,55.24
2022-10-10T17:00:07.289Z,55.39
2022-10-10T17:02:35.497Z,55.51
2022-10-10T17:05:04.771Z,55.57
2022-10-10T17:07:33.526Z,55.52
2022-10-10T17:10:04.251Z,55.19
2022-10-10T17:12:32.569Z,55.27
2022-10-10T17:15:01.725Z,55.46
2022-10-10T17:17:33.854Z,55.26
2022-10-10T17:20:03.179Z,55.58
2022-10-10T17:22:32.189Z,55.67
2022-10-10T17:25:00.460Z,55.42
2022-10-10T17:27:30.650Z,55.23
2022-10-10T17:29:59.009Z,55.64
2022-10-10T17:32:27.175Z,55.39
2022-10-10T17:34:55.834Z,55.34
2022-10-10T17:37:24.528Z,55.41
2022-10-10T17:39:53.382Z,55.54
2022-10-10T17:42:22.397Z,55.32
2022-10-10T17:44:56.233Z,55.33
2022-10-10T17:47:24.992Z,55.39
2022-10-10T17:49:53.760Z,55.39
2022-10-10T17:52:22.409Z,55.38
2022-10-10T17:54:50.865Z,55.61
2022-10-10T17:57:19.564Z,55.63
2022-10-10T17:59:47.992Z,55.63
2022-10-10T18:02:19.557Z,55.47
2022-10-10T18:04:47.928Z,55.62
2022-10-10T18:07:18.651Z,55.50
2022-10-10T18:09:47.247Z,55.47
2022-10-10T18:12:15.448Z,55.44
2022-10-10T18:14:43.660Z,55.53
2022-10-10T18:17:12.587Z,55.54
2022-10-10T18:19:42.427Z,55.69
2022-10-10T18:22:11.650Z,55.52
2022-10-10T18:24:40.145Z,55.61
2022-10-10T18:27:08.340Z,55.70
2022-10-10T18:29:37.522Z,55.50
2022-10-10T18:32:05.807Z,55.51
2022-10-10T18:34:34.029Z,55.49
2022-10-10T18:37:05.057Z,55.64
2022-10-10T18:39:35.504Z,55.47
2022-10-10T18:42:04.105Z,55.67
2022-10-10T18:44:32.600Z,55.68
2022-10-10T18:47:01.411Z,55.50
2022-10-10T18:49:30.162Z,55.76
2022-10-10T18:51:58.276Z,55.68
2022-10-10T18:54:30.517Z,55.41
2022-10-10T18:56:58.836Z,55.49
2022-10-10T18:59:27.151Z,55.73
2022-10-10T19:01:55.617Z,55.62
2022-10-10T19:04:23.918Z,55.62
2022-10-10T19:06:57.077Z,55.49
2022-10-10T19:09:27.952Z,55.55
2022-10-10T19:11:56.673Z,55.66
2022-10-10T19:14:24.944Z,55.70
2022-10-10T19:16:53.294Z,55.65
2022-10-10T19:19:22.020Z,55.67
2022-10-10T19:21:51.245Z,55.65
2022-10-10T19:24:21.616Z,55.78
2022-10-10T19:26:56.859Z,55.59
2022-10-10T19:29:26.199Z,55.60
2022-10-10T19:31:54.707Z,55.61
2022-10-10T19:34:23.018Z,55.70
2022-10-10T19:36:51.396Z,55.60
2022-10-10T19:39:20.152Z,55.43
2022-10-10T19:41:48.595Z,55.44
2022-10-10T19:44:18.165Z,55.72
2022-10-10T19:46:46.448Z,55.68
2022-10-10T19:49:14.897Z,55.51
2022-10-10T19:51:43.167Z,55.47
2022-10-10T19:54:11.591Z,55.41
2022-10-10T19:56:39.890Z,55.79
2022-10-10T19:59:08.290Z,55.76
2022-10-10T20:01:38.235Z,55.55
2022-10-10T20:04:06.873Z,55.64
2022-10-10T20:06:35.023Z,55.75
2022-10-10T20:09:07.123Z,55.58
2022-10-10T20:11:38.753Z,55.69
2022-10-10T20:14:06.959Z,55.63
2022-10-10T20:16:35.874Z,55.57
2022-10-10T20:19:05.668Z,55.44
2022-10-10T20:21:35.270Z,55.63
2022-10-10T20:24:06.157Z,55.33
2022-10-10T20:26:34.993Z,55.44
2022-10-10T20:29:04.044Z,55.75
2022-10-10T20:31:35.085Z,55.65
2022-10-10T20:34:06.638Z,55.36
2022-10-10T20:36:36.289Z,55.61
2022-10-10T20:39:08.195Z,55.44
2022-10-10T20:41:38.510Z,55.50
2022-10-10T20:44:08.065Z,55.50
2022-10-10T20:46:38.360Z,55.40
2022-10-10T20:49:09.839Z,55.65
2022-10-10T20:51:38.017Z,55.73
2022-10-10T20:54:07.757Z,55.54
2022-10-10T20:56:37.777Z,55.64
2022-10-10T20:59:07.404Z,55.57
2022-10-10T21:01:36.210Z,55.49
2022-10-10T21:04:04.551Z,55.42
2022-10-10T21:06:37.260Z,55.40
2022-10-10T21:09:07.954Z,55.64
2022-10-10T21:11:37.403Z,55.49
2022-10-10T21:14:05.759Z,55.59
2022-10-10T21:16:36.863Z,55.62
2022-10-10T21:19:06.758Z,55.56
2022-10-10T21:21:37.121Z,55.54
2022-10-10T21:24:07.091Z,55.75
2022-10-10T21:26:35.943Z,55.60
2022-10-10T21:29:05.429Z,55.80
2022-10-10T21:31:35.533Z,55.58
2022-10-10T21:34:06.443Z,55.66
2022-10-10T21:36:37.625Z,55.42
2022-10-10T21:39:07.291Z,55.48
2022-10-10T21:41:36.206Z,55.40
2022-10-10T21:44:04.838Z,55.58
2022-10-10T21:46:36.555Z,55.42
2022-10-10T21:49:07.094Z,55.57
2022-10-10T21:51:39.240Z,55.53
2022-10-10T21:54:08.782Z,55.41
2022-10-10T21:56:37.590Z,55.67
2022-10-10T21:59:06.280Z,55.56
2022-10-10T22:01:34.630Z,55.71
2022-10-10T22:04:03.832Z,55.63
2022-10-10T22:06:33.069Z,55.64
2022-10-10T22:09:03.018Z,55.28
2022-10-10T22:11:32.967Z,55.52
2022-10-10T22:14:02.851Z,55.60
2022-10-10T22:16:32.234Z,55.43
2022-10-10T22:19:01.001Z,55.39
2022-10-10T22:21:32.414Z,55.41
2022-10-10T22:24:03.835Z,55.29
2022-10-10T22:26:33.985Z,55.52
2022-10-10T22:29:04.804Z,55.60
2022-10-10T22:31:35.682Z,55.35
2022-10-10T22:34:03.995Z,55.20
2022-10-10T22:36:32.267Z,55.48
2022-10-10T22:39:01.238Z,55.49
2022-10-10T22:41:30.924Z,55.51
2022-10-10T22:43:59.090Z,55.54
2022-10-10T22:46:27.412Z,55.50
2022-10-10T22:48:56.358Z,55.25
2022-10-10T22:51:25.215Z,55.50
2022-10-10T22:53:54.010Z,55.19
2022-10-10T22:56:23.203Z,55.38
2022-10-10T22:58:53.184Z,55.40
2022-10-10T23:01:26.134Z,55.23
2022-10-10T23:03:56.585Z,55.39
2022-10-10T23:06:25.078Z,55.48
2022-10-10T23:08:53.858Z,55.49
2022-10-10T23:11:22.801Z,55.31
2022-10-10T23:13:52.546Z,55.24
2022-10-10T23:16:20.943Z,55.21
2022-10-10T23:18:49.613Z,55.31
2022-10-10T23:21:17.805Z,55.47
2022-10-10T23:23:45.914Z,55.54
2022-10-10T23:26:15.185Z,55.42
2022-10-10T23:28:44.975Z,55.22
2022-10-10T23:31:15.437Z,55.35
2022-10-10T23:33:44.514Z,55.15
2022-10-10T23:36:15.343Z,55.14
2022-10-10T23:38:44.130Z,55.53
2022-10-10T23:41:15.892Z,55.41
2022-10-10T23:43:44.342Z,55.30
2022-10-10T23:46:13.104Z,55.20
2022-10-10T23:48:43.348Z,55.05
2022-10-10T23:51:11.959Z,55.23
2022-10-10T23:53:40.598Z,55.34
2022-10-10T23:56:09.512Z,55.09
2022-10-10T23:58:37.823Z,55.06
